Time;durP1;ratioP1;P1;durP2;ratioP2;P2;SDS_P1;SDS_P2;PMS_P1;PMS_P2;Temp;Humidity;BMP_temperature;BMP_pressure;BME280_temperature;BME280_humidity;BME280_pressure;Samples;Min_cycle;Max_cycle;Signal;HPM_P1;HPM_P2
2022/04/11 00:09:36;;;;;;;0.65;0.25;;;9.60;63.30;;;;;;20750420;28;20436;-76
2022/04/11 00:19:36;;;;;;;1.00;0.40;;;9.50;63.20;;;;;;20700691;28;20526;-75
2022/04/11 00:29:37;;;;;;;0.73;0.47;;;9.50;63.20;;;;;;20733209;28;20062;-75
2022/04/11 00:39:37;;;;;;;1.52;0.50;;;9.50;63.10;;;;;;20699589;28;20088;-75
2022/04/11 00:49:38;;;;;;;1.50;0.60;;;9.40;63.00;;;;;;20699259;28;20068;-75
2022/04/11 00:59:39;;;;;;;0.30;0.25;;;9.50;63.10;;;;;;20731915;28;20125;-76
2022/04/11 01:09:40;;;;;;;0.45;0.43;;;9.40;63.00;;;;;;20712127;28;20034;-75
2022/04/11 01:19:40;;;;;;;1.40;0.80;;;9.40;63.00;;;;;;20713045;28;20089;-75
2022/04/11 01:29:41;;;;;;;0.90;0.43;;;9.40;62.90;;;;;;20711601;28;20069;-75
2022/04/11 01:39:42;;;;;;;1.08;0.50;;;9.40;62.90;;;;;;20711219;28;20301;-75
2022/04/11 01:49:45;;;;;;;0.57;0.50;;;9.40;62.90;;;;;;20709837;28;20069;-75
2022/04/11 01:59:45;;;;;;;1.08;0.60;;;9.40;62.90;;;;;;20710350;28;20030;-75
2022/04/11 02:09:46;;;;;;;1.47;0.63;;;9.40;62.90;;;;;;20709023;28;20029;-75
2022/04/11 02:19:47;;;;;;;1.27;0.60;;;9.40;62.80;;;;;;20708611;28;20962;-76
2022/04/11 02:29:47;;;;;;;2.90;0.77;;;9.40;62.80;;;;;;21115196;22;20057;-76
2022/04/11 02:39:49;;;;;;;1.17;0.55;;;9.40;62.70;;;;;;20788783;28;20095;-76
2022/04/11 02:49:49;;;;;;;0.57;0.40;;;9.30;62.60;;;;;;20788720;28;20029;-75
2022/04/11 03:00:04;;;;;;;1.67;0.70;;;9.40;62.60;;;;;;20789870;28;20438;-75
2022/04/11 03:10:07;;;;;;;1.13;0.45;;;9.30;62.50;;;;;;20778282;28;20112;-76
2022/04/11 03:20:09;;;;;;;0.63;0.45;;;9.30;62.50;;;;;;20802787;28;20132;-75
2022/04/11 03:30:13;;;;;;;1.13;0.50;;;9.30;62.50;;;;;;20773384;28;20052;-75
2022/04/11 03:40:15;;;;;;;0.80;0.50;;;9.30;62.50;;;;;;20790904;28;20667;-75
2022/04/11 03:50:16;;;;;;;1.40;0.60;;;9.30;62.50;;;;;;20800820;28;20029;-75
2022/04/11 04:00:19;;;;;;;1.65;0.40;;;9.30;62.50;;;;;;20816101;28;20048;-75
2022/04/11 04:10:45;;;;;;;1.83;0.80;;;9.30;62.50;;;;;;20815879;28;20044;-75
2022/04/11 04:20:46;;;;;;;0.73;0.50;;;9.30;62.50;;;;;;20781974;28;20479;-76
2022/04/11 04:30:47;;;;;;;0.70;0.60;;;9.30;62.40;;;;;;20799139;28;20387;-74
2022/04/11 04:40:48;;;;;;;1.75;0.60;;;9.20;62.30;;;;;;20795094;28;20044;-75
2022/04/11 04:50:54;;;;;;;0.98;0.70;;;9.20;62.30;;;;;;20747095;28;20085;-75
2022/04/11 05:00:55;;;;;;;0.65;0.35;;;9.30;62.30;;;;;;20766575;28;20399;-75
2022/04/11 05:10:59;;;;;;;1.15;0.50;;;9.20;62.20;;;;;;20791258;28;20372;-75
2022/04/11 05:21:00;;;;;;;1.27;0.45;;;9.20;62.20;;;;;;20770303;28;20078;-75
2022/04/11 05:31:05;;;;;;;1.17;0.63;;;9.20;62.30;;;;;;20792730;28;20094;-75
2022/04/11 05:41:11;;;;;;;0.95;0.60;;;9.20;62.20;;;;;;20712969;28;20049;-77
2022/04/11 05:51:21;;;;;;;1.35;0.70;;;9.20;62.20;;;;;;20741518;28;20052;-75
2022/04/11 06:01:23;;;;;;;1.00;0.60;;;9.20;62.20;;;;;;20823671;28;20041;-75
2022/04/11 06:11:24;;;;;;;1.52;0.70;;;9.20;62.30;;;;;;20773457;28;20072;-74
2022/04/11 06:21:27;;;;;;;2.33;0.70;;;9.20;62.30;;;;;;20790248;28;20446;-75
2022/04/11 06:31:28;;;;;;;0.60;0.38;;;9.20;62.50;;;;;;20789032;28;20553;-74
2022/04/11 06:41:37;;;;;;;1.27;0.68;;;9.20;62.50;;;;;;20786041;28;20046;-74
2022/04/11 06:51:39;;;;;;;0.85;0.65;;;9.20;62.50;;;;;;20717380;28;20033;-75
2022/04/11 07:01:39;;;;;;;0.50;0.30;;;9.20;62.50;;;;;;20787987;28;20036;-72
2022/04/11 07:11:40;;;;;;;1.50;0.50;;;9.20;62.60;;;;;;20797359;28;20078;-72
2022/04/11 07:21:41;;;;;;;0.98;0.57;;;9.20;62.60;;;;;;20764142;28;20037;-72
2022/04/11 07:31:41;;;;;;;2.33;0.70;;;9.20;62.70;;;;;;20799190;28;20373;-72
2022/04/11 07:41:42;;;;;;;2.00;0.40;;;9.20;62.70;;;;;;20809926;28;20391;-72
2022/04/11 07:51:42;;;;;;;2.20;0.60;;;9.30;63.30;;;;;;20818376;28;20752;-71
2022/04/11 08:01:43;;;;;;;0.98;0.43;;;9.30;62.60;;;;;;20796627;28;20038;-78
2022/04/11 08:11:44;;;;;;;1.37;0.60;;;9.30;62.60;;;;;;20795478;28;20049;-78
2022/04/11 08:21:44;;;;;;;1.30;0.60;;;9.30;62.50;;;;;;20801444;28;20331;-78
2022/04/11 08:31:45;;;;;;;2.00;0.60;;;9.30;62.50;;;;;;20797751;28;20045;-78
2022/04/11 08:41:46;;;;;;;0.75;0.47;;;9.30;62.50;;;;;;20814429;28;20087;-77
2022/04/11 08:51:46;;;;;;;0.63;0.40;;;9.40;62.60;;;;;;20796395;28;20041;-73
2022/04/11 09:01:47;;;;;;;0.68;0.40;;;9.30;62.50;;;;;;20777922;28;20029;-73
2022/04/11 09:11:48;;;;;;;0.35;0.30;;;9.30;62.40;;;;;;20780197;28;20452;-73
2022/04/11 09:21:50;;;;;;;1.02;0.57;;;9.30;62.40;;;;;;20793666;28;20037;-75
2022/04/11 09:31:51;;;;;;;0.60;0.35;;;9.40;62.50;;;;;;20792894;28;20042;-74
2022/04/11 09:41:52;;;;;;;1.35;0.50;;;9.40;62.50;;;;;;20790654;28;20040;-75
2022/04/11 09:52:07;;;;;;;1.48;0.60;;;9.40;62.50;;;;;;20791007;28;20041;-77
2022/04/11 10:02:10;;;;;;;0.57;0.55;;;9.40;62.50;;;;;;20778625;28;20617;-77
2022/04/11 10:12:10;;;;;;;1.77;0.68;;;9.40;62.40;;;;;;20732560;28;20093;-77
2022/04/11 10:22:21;;;;;;;0.68;0.40;;;9.40;62.30;;;;;;20762970;28;20412;-77
2022/04/11 10:32:26;;;;;;;2.55;0.57;;;9.40;63.00;;;;;;20757891;28;20045;-76
2022/04/11 10:42:28;;;;;;;2.63;0.90;;;9.40;62.20;;;;;;20804822;28;20064;-71
2022/04/11 10:52:35;;;;;;;1.20;0.60;;;9.40;62.00;;;;;;20832343;28;20547;-85
2022/04/11 11:02:48;;;;;;;4.93;1.10;;;9.40;61.70;;;;;;20803784;28;20029;-77
2022/04/11 11:12:48;;;;;;;4.07;2.17;;;9.40;61.10;;;;;;20826206;28;20043;-75
2022/04/11 11:23:18;;;;;;;4.78;1.02;;;9.40;60.70;;;;;;20818319;28;20128;-74
2022/04/11 11:33:19;;;;;;;2.65;0.95;;;9.40;60.30;;;;;;20800019;28;20045;-74
2022/04/11 11:43:20;;;;;;;1.77;0.93;;;9.50;60.20;;;;;;20831256;28;20109;-75
2022/04/11 11:53:21;;;;;;;1.48;1.00;;;9.50;60.30;;;;;;20798746;28;20056;-76
2022/04/11 12:13:41;;;;;;;2.58;1.10;;;9.50;60.40;;;;;;20796426;28;20430;-74
2022/04/11 12:23:46;;;;;;;2.78;0.60;;;9.50;60.50;;;;;;20815820;28;20128;-80
2022/04/11 12:33:52;;;;;;;1.92;1.08;;;9.50;61.30;;;;;;20779322;28;20365;-73
2022/04/11 12:44:07;;;;;;;3.65;1.10;;;9.60;60.60;;;;;;20713982;28;20038;-75
2022/04/11 12:54:09;;;;;;;0.93;0.70;;;9.50;60.60;;;;;;20794514;28;20447;-72
2022/04/11 13:04:09;;;;;;;2.13;0.95;;;9.60;60.70;;;;;;20780450;28;20036;-75
2022/04/11 13:14:10;;;;;;;1.38;0.50;;;9.60;60.70;;;;;;20793940;28;20069;-76
2022/04/11 13:24:10;;;;;;;1.90;0.90;;;9.70;60.90;;;;;;20791440;28;20095;-77
2022/04/11 13:34:11;;;;;;;0.90;0.77;;;9.70;60.90;;;;;;20826328;28;20296;-77
2022/04/11 13:44:12;;;;;;;2.80;1.57;;;9.80;61.00;;;;;;20806260;28;20025;-77
2022/04/11 13:54:14;;;;;;;3.05;1.20;;;9.80;61.00;;;;;;20774460;28;20865;-76
2022/04/11 14:04:15;;;;;;;1.15;1.05;;;10.00;60.50;;;;;;20790557;28;20029;-75
2022/04/11 14:14:15;;;;;;;1.55;0.80;;;10.00;60.40;;;;;;20790953;28;20099;-76
2022/04/11 14:24:16;;;;;;;1.92;1.08;;;10.10;60.70;;;;;;20709150;28;20056;-76
2022/04/11 14:34:17;;;;;;;2.45;1.58;;;10.20;60.10;;;;;;20769066;28;20046;-76
2022/04/11 14:44:18;;;;;;;1.92;1.67;;;10.20;59.70;;;;;;20788632;28;20395;-76
2022/04/11 14:54:18;;;;;;;2.50;1.00;;;10.30;59.50;;;;;;20741417;28;20049;-77
2022/04/11 15:04:19;;;;;;;1.13;0.70;;;10.40;59.30;;;;;;20749911;28;20116;-75
2022/04/11 15:14:19;;;;;;;3.30;0.90;;;10.60;59.40;;;;;;20774571;28;20412;-78
2022/04/11 15:24:20;;;;;;;2.70;0.68;;;10.70;59.30;;;;;;20811548;28;20288;-77
2022/04/11 15:34:21;;;;;;;4.35;0.77;;;10.80;60.00;;;;;;20812717;28;20065;-77
2022/04/11 15:44:22;;;;;;;0.88;0.68;;;10.90;59.40;;;;;;20806769;28;20391;-81
2022/04/11 15:54:22;;;;;;;0.60;0.50;;;11.00;59.40;;;;;;20807534;28;20292;-79
2022/04/11 16:04:23;;;;;;;2.00;0.90;;;11.10;59.40;;;;;;20822132;28;20057;-78
2022/04/11 16:14:25;;;;;;;2.28;0.82;;;11.10;59.30;;;;;;20820488;28;20042;-79
2022/04/11 16:24:25;;;;;;;3.35;0.73;;;11.10;59.20;;;;;;20804335;28;20041;-78
2022/04/11 16:34:26;;;;;;;1.50;0.55;;;11.10;59.20;;;;;;20804157;28;20045;-78
2022/04/11 16:44:27;;;;;;;0.63;0.40;;;11.10;59.20;;;;;;20785140;28;20033;-78
2022/04/11 16:54:27;;;;;;;1.67;0.52;;;11.10;59.30;;;;;;20800861;28;20468;-78
2022/04/11 17:04:28;;;;;;;0.95;0.70;;;11.00;60.00;;;;;;20800771;28;20045;-79
2022/04/11 17:14:28;;;;;;;0.70;0.50;;;11.00;59.50;;;;;;20798750;28;20140;-78
2022/04/11 17:24:29;;;;;;;1.27;0.22;;;11.00;59.70;;;;;;20797067;28;20327;-76
2022/04/11 17:34:33;;;;;;;0.80;0.60;;;11.00;59.80;;;;;;20800215;28;20038;-76
2022/04/11 17:44:33;;;;;;;1.60;0.80;;;10.90;60.00;;;;;;20727071;28;20041;-76
2022/04/11 17:54:34;;;;;;;1.15;0.60;;;10.90;60.30;;;;;;20709600;28;20041;-76
2022/04/11 18:04:35;;;;;;;1.08;0.60;;;10.80;60.40;;;;;;20724572;28;20038;-76
2022/04/11 18:14:39;;;;;;;1.25;0.70;;;10.80;60.70;;;;;;20724362;28;20124;-76
2022/04/11 18:24:39;;;;;;;0.70;0.40;;;10.70;60.80;;;;;;20707102;28;20056;-75
2022/04/11 18:34:40;;;;;;;0.73;0.35;;;10.70;61.70;;;;;;20691015;28;20053;-76
2022/04/11 18:44:42;;;;;;;0.35;0.30;;;10.60;61.20;;;;;;20721572;28;20562;-72
2022/04/11 18:54:44;;;;;;;2.10;0.52;;;10.60;61.30;;;;;;20784827;28;20400;-72
2022/04/11 19:04:44;;;;;;;1.70;0.38;;;10.60;61.50;;;;;;20803564;28;20037;-73
2022/04/11 19:14:45;;;;;;;1.75;1.48;;;10.50;61.60;;;;;;20814421;28;20125;-74
2022/04/11 19:24:45;;;;;;;2.70;0.52;;;10.50;61.70;;;;;;20802342;28;20041;-74
2022/04/11 19:34:46;;;;;;;1.08;0.60;;;10.60;61.80;;;;;;20815559;28;20224;-73
2022/04/11 19:44:46;;;;;;;1.70;0.50;;;10.50;61.90;;;;;;20816594;28;20379;-73
2022/04/11 19:54:47;;;;;;;1.20;0.63;;;10.50;62.00;;;;;;20817936;28;20045;-74
2022/04/11 20:04:48;;;;;;;1.02;0.50;;;10.40;62.00;;;;;;20816086;28;20493;-73
2022/04/11 20:14:48;;;;;;;2.95;0.63;;;10.40;62.10;;;;;;20815222;28;20041;-73
2022/04/11 20:24:49;;;;;;;1.30;0.50;;;10.40;62.10;;;;;;20814395;28;20061;-73
2022/04/11 20:34:49;;;;;;;0.50;0.45;;;10.40;62.10;;;;;;20798441;28;20072;-73
2022/04/11 20:44:50;;;;;;;0.60;0.30;;;10.40;62.20;;;;;;20797725;28;20041;-73
2022/04/11 21:05:10;;;;;;;1.08;0.50;;;10.30;62.10;;;;;;20813517;28;20450;-73
2022/04/11 21:15:11;;;;;;;1.80;0.70;;;10.30;62.10;;;;;;20828802;28;20125;-73
2022/04/11 21:25:12;;;;;;;1.42;0.70;;;10.30;62.10;;;;;;20809538;28;20033;-73
2022/04/11 21:35:12;;;;;;;1.38;0.50;;;10.30;62.20;;;;;;20792575;28;20079;-73
2022/04/11 21:45:13;;;;;;;0.88;0.63;;;10.30;62.10;;;;;;20809833;28;20455;-73
2022/04/11 21:55:13;;;;;;;1.25;0.70;;;10.30;62.10;;;;;;20825259;28;20622;-73
2022/04/11 22:05:14;;;;;;;1.23;0.90;;;10.30;62.20;;;;;;20824673;28;20034;-73
2022/04/11 22:15:15;;;;;;;1.48;0.85;;;10.20;62.10;;;;;;20806440;28;20041;-73
2022/04/11 22:25:15;;;;;;;1.40;0.95;;;10.20;62.00;;;;;;20806818;28;20037;-73
2022/04/11 22:35:16;;;;;;;1.00;0.77;;;10.20;62.00;;;;;;20805439;28;20044;-73
2022/04/11 22:45:16;;;;;;;1.58;1.08;;;10.20;62.00;;;;;;20777422;28;20167;-73
2022/04/11 22:55:17;;;;;;;1.95;0.80;;;10.20;62.00;;;;;;20831677;28;20053;-73
2022/04/11 23:05:18;;;;;;;1.73;1.10;;;10.20;62.00;;;;;;20819685;28;20120;-73
2022/04/11 23:15:19;;;;;;;2.00;1.02;;;10.20;62.00;;;;;;20819813;28;20403;-73
2022/04/11 23:25:19;;;;;;;1.35;0.82;;;10.20;62.00;;;;;;20819879;28;20041;-73
2022/04/11 23:35:20;;;;;;;2.22;1.00;;;10.20;62.00;;;;;;20802572;28;20510;-73
2022/04/11 23:45:20;;;;;;;2.33;1.00;;;10.20;62.00;;;;;;20801406;28;20495;-73
2022/04/11 23:55:21;;;;;;;2.00;1.08;;;10.20;62.00;;;;;;20799189;28;20127;-74
